PWSweather.com
Personal Weather Stations
Station Observations
DTMHEUBES
DortmundDE 44289

DortmundDE 44289

Lat: 51.4971199, Lon: 7.58748007

Elevation: 406.824

Station Type: Davis Vantage Pro 2 active

http://wetter.heubes.de

Latest ConditionsUpdated 8:07:01 AM GMT+01:01 Saturday, Jan 18, 2020
Currently Today's Max Today's Min Today's Average
Temperature 40.3°F4.6°C 42.8°F6.0°C 39.9°F4.4°C 41.0°F5.0°C
Dew Point 36.1°F2.3°C 37.6°F3.1°C 36.1°F2.3°C 36.8°F2.7°C
Winds 4.9 mph SW7.9 kmh SW 11.1 mph -17.9 kmh - - 5.9 mph 9.5 kmh
Wind Gusts 9.0 mph14.5 kmh 18.0 mph29.0 kmh - -
Humidity 86% 88% 80% 85%
Pressure 30.18 in1022.0 mb 30.18 in1022.0 mb 30.08 in1018.6 mb -
Hour Temp Dew Point Humidity Winds Wind Gusts Pressure Precip Precip Rate Daily Precip Total
08:07 AM 40.3°F4.6°C 36.1°F2.3°C 86% 4.9 mph SW7.9 kmh SW 9.0 mph14.5 kmh 30.18 in1022.0 mb 0.00 in0.0 mm 0.00 in0.0 mm 0.00 in0.0 mm
08:02 AM 40.3°F4.6°C 36.1°F2.3°C 86% 6.6 mph SW10.6 kmh SW 11.0 mph17.7 kmh 30.17 in1021.7 mb 0.00 in0.0 mm 0.00 in0.0 mm 0.00 in0.0 mm
07:57 AM 40.3°F4.6°C 36.3°F2.4°C 86% 6.0 mph SW9.7 kmh SW 10.0 mph16.1 kmh 30.17 in1021.7 mb 0.00 in0.0 mm 0.00 in0.0 mm 0.00 in0.0 mm
07:52 AM 40.1°F4.5°C 36.1°F2.3°C 86% 6.8 mph SW10.9 kmh SW 12.0 mph19.3 kmh 30.17 in1021.7 mb 0.00 in0.0 mm 0.00 in0.0 mm 0.00 in0.0 mm
07:47 AM 40.1°F4.5°C 36.1°F2.3°C 86% 4.9 mph SW7.9 kmh SW 10.0 mph16.1 kmh 30.17 in1021.7 mb 0.00 in0.0 mm 0.00 in0.0 mm 0.00 in0.0 mm
07:42 AM 40.1°F4.5°C 36.1°F2.3°C 86% 7.5 mph SW12.1 kmh SW 15.0 mph24.1 kmh 30.17 in1021.7 mb 0.00 in0.0 mm 0.00 in0.0 mm 0.00 in0.0 mm
07:37 AM 40.3°F4.6°C 36.1°F2.3°C 86% 4.5 mph SW7.2 kmh SW 10.0 mph16.1 kmh 30.17 in1021.7 mb 0.00 in0.0 mm 0.00 in0.0 mm 0.00 in0.0 mm
07:32 AM 40.3°F4.6°C 36.1°F2.3°C 86% 4.1 mph SW6.6 kmh SW 8.0 mph12.9 kmh 30.17 in1021.7 mb 0.00 in0.0 mm 0.00 in0.0 mm 0.00 in0.0 mm
07:27 AM 40.3°F4.6°C 36.3°F2.4°C 86% 6.4 mph SW10.3 kmh SW 11.0 mph17.7 kmh 30.17 in1021.7 mb 0.00 in0.0 mm 0.00 in0.0 mm 0.00 in0.0 mm
07:22 AM 40.5°F4.7°C 36.3°F2.4°C 85% 5.0 mph SW8.0 kmh SW 8.0 mph12.9 kmh 30.17 in1021.7 mb 0.00 in0.0 mm 0.00 in0.0 mm 0.00 in0.0 mm
07:17 AM 40.5°F4.7°C 36.3°F2.4°C 85% 6.2 mph SW10.0 kmh SW 11.0 mph17.7 kmh 30.17 in1021.7 mb 0.00 in0.0 mm 0.00 in0.0 mm 0.00 in0.0 mm
07:12 AM 40.6°F4.8°C 36.5°F2.5°C 85% 7.5 mph SW12.1 kmh SW 12.0 mph19.3 kmh 30.16 in1021.3 mb 0.00 in0.0 mm 0.00 in0.0 mm 0.00 in0.0 mm
07:07 AM 40.6°F4.8°C 36.5°F2.5°C 85% 5.5 mph SW8.9 kmh SW 11.0 mph17.7 kmh 30.16 in1021.3 mb 0.00 in0.0 mm 0.00 in0.0 mm 0.00 in0.0 mm
07:02 AM 40.6°F4.8°C 36.5°F2.5°C 85% 7.1 mph SW11.4 kmh SW 15.0 mph24.1 kmh 30.17 in1021.7 mb 0.00 in0.0 mm 0.00 in0.0 mm 0.00 in0.0 mm
06:57 AM 40.6°F4.8°C 36.7°F2.6°C 85% 6.5 mph SW10.5 kmh SW 9.0 mph14.5 kmh 30.17 in1021.7 mb 0.00 in0.0 mm 0.00 in0.0 mm 0.00 in0.0 mm
06:52 AM 40.6°F4.8°C 36.7°F2.6°C 85% 5.3 mph SW8.5 kmh SW 10.0 mph16.1 kmh 30.17 in1021.7 mb 0.00 in0.0 mm 0.00 in0.0 mm 0.00 in0.0 mm
06:47 AM 40.5°F4.7°C 36.5°F2.5°C 85% 6.1 mph SW9.8 kmh SW 10.0 mph16.1 kmh 30.17 in1021.7 mb 0.00 in0.0 mm 0.00 in0.0 mm 0.00 in0.0 mm
06:42 AM 40.5°F4.7°C 36.3°F2.4°C 86% 4.7 mph SW7.6 kmh SW 10.0 mph16.1 kmh 30.16 in1021.3 mb 0.00 in0.0 mm 0.00 in0.0 mm 0.00 in0.0 mm
06:37 AM 40.5°F4.7°C 36.3°F2.4°C 86% 5.1 mph SW8.2 kmh SW 11.0 mph17.7 kmh 30.16 in1021.3 mb 0.00 in0.0 mm 0.00 in0.0 mm 0.00 in0.0 mm
06:32 AM 40.5°F4.7°C 36.5°F2.5°C 86% 3.2 mph SW5.1 kmh SW 8.0 mph12.9 kmh 30.16 in1021.3 mb 0.00 in0.0 mm 0.00 in0.0 mm 0.00 in0.0 mm
06:27 AM 40.5°F4.7°C 36.5°F2.5°C 86% 5.6 mph SW9.0 kmh SW 12.0 mph19.3 kmh 30.16 in1021.3 mb 0.00 in0.0 mm 0.00 in0.0 mm 0.00 in0.0 mm
06:22 AM 40.5°F4.7°C 36.5°F2.5°C 86% 5.9 mph SW9.5 kmh SW 11.0 mph17.7 kmh 30.17 in1021.7 mb 0.00 in0.0 mm 0.00 in0.0 mm 0.00 in0.0 mm
06:17 AM 40.5°F4.7°C 36.5°F2.5°C 86% 8.0 mph SW12.9 kmh SW 12.0 mph19.3 kmh 30.16 in1021.3 mb 0.00 in0.0 mm 0.00 in0.0 mm 0.00 in0.0 mm
06:12 AM 40.3°F4.6°C 36.3°F2.4°C 86% 9.0 mph SW14.5 kmh SW 14.0 mph22.5 kmh 30.16 in1021.3 mb 0.00 in0.0 mm 0.00 in0.0 mm 0.00 in0.0 mm
06:07 AM 40.1°F4.5°C 36.1°F2.3°C 86% 7.3 mph SW11.7 kmh SW 15.0 mph24.1 kmh 30.16 in1021.3 mb 0.00 in0.0 mm 0.00 in0.0 mm 0.00 in0.0 mm
06:02 AM 39.9°F4.4°C 36.1°F2.3°C 86% 5.3 mph SW8.5 kmh SW 10.0 mph16.1 kmh 30.16 in1021.3 mb 0.00 in0.0 mm 0.00 in0.0 mm 0.00 in0.0 mm
05:57 AM 40.1°F4.5°C 36.1°F2.3°C 86% 5.2 mph SW8.4 kmh SW 10.0 mph16.1 kmh 30.16 in1021.3 mb 0.00 in0.0 mm 0.00 in0.0 mm 0.00 in0.0 mm
05:52 AM 40.1°F4.5°C 36.1°F2.3°C 86% 5.5 mph SW8.9 kmh SW 12.0 mph19.3 kmh 30.16 in1021.3 mb 0.00 in0.0 mm 0.00 in0.0 mm 0.00 in0.0 mm
05:47 AM 40.3°F4.6°C 36.1°F2.3°C 85% 7.3 mph SW11.7 kmh SW 13.0 mph20.9 kmh 30.15 in1021.0 mb 0.00 in0.0 mm 0.00 in0.0 mm 0.00 in0.0 mm
05:42 AM 40.5°F4.7°C 36.3°F2.4°C 85% 6.0 mph SW9.7 kmh SW 9.0 mph14.5 kmh 30.15 in1021.0 mb 0.00 in0.0 mm 0.00 in0.0 mm 0.00 in0.0 mm
05:37 AM 40.5°F4.7°C 36.3°F2.4°C 85% 6.1 mph SW9.8 kmh SW 13.0 mph20.9 kmh 30.15 in1021.0 mb 0.00 in0.0 mm 0.00 in0.0 mm 0.00 in0.0 mm
05:32 AM 40.6°F4.8°C 36.5°F2.5°C 85% 8.1 mph SW13.0 kmh SW 15.0 mph24.1 kmh 30.15 in1021.0 mb 0.00 in0.0 mm 0.00 in0.0 mm 0.00 in0.0 mm
05:27 AM 40.6°F4.8°C 36.7°F2.6°C 85% 5.5 mph SW8.9 kmh SW 9.0 mph14.5 kmh 30.15 in1021.0 mb 0.00 in0.0 mm 0.00 in0.0 mm 0.00 in0.0 mm
05:22 AM 40.8°F4.9°C 36.7°F2.6°C 85% 7.6 mph SW12.2 kmh SW 11.0 mph17.7 kmh 30.15 in1021.0 mb 0.00 in0.0 mm 0.00 in0.0 mm 0.00 in0.0 mm
05:17 AM 40.8°F4.9°C 36.9°F2.7°C 85% 5.8 mph SW9.3 kmh SW 12.0 mph19.3 kmh 30.15 in1021.0 mb 0.00 in0.0 mm 0.00 in0.0 mm 0.00 in0.0 mm
05:12 AM 40.8°F4.9°C 36.9°F2.7°C 85% 6.1 mph SW9.8 kmh SW 10.0 mph16.1 kmh 30.15 in1021.0 mb 0.00 in0.0 mm 0.00 in0.0 mm 0.00 in0.0 mm
05:07 AM 40.8°F4.9°C 36.9°F2.7°C 85% 5.5 mph SW8.9 kmh SW 8.0 mph12.9 kmh 30.15 in1021.0 mb 0.00 in0.0 mm 0.00 in0.0 mm 0.00 in0.0 mm
05:02 AM 41.0°F5.0°C 37.0°F2.8°C 85% 5.5 mph SW8.9 kmh SW 9.0 mph14.5 kmh 30.15 in1021.0 mb 0.00 in0.0 mm 0.00 in0.0 mm 0.00 in0.0 mm
04:57 AM 41.0°F5.0°C 37.0°F2.8°C 85% 8.8 mph SW14.2 kmh SW 18.0 mph29.0 kmh 30.14 in1020.7 mb 0.00 in0.0 mm 0.00 in0.0 mm 0.00 in0.0 mm
04:52 AM 41.2°F5.1°C 37.0°F2.8°C 86% 6.1 mph SW9.8 kmh SW 12.0 mph19.3 kmh 30.15 in1021.0 mb 0.00 in0.0 mm 0.00 in0.0 mm 0.00 in0.0 mm
04:47 AM 41.2°F5.1°C 37.0°F2.8°C 86% 8.0 mph SW12.9 kmh SW 14.0 mph22.5 kmh 30.14 in1020.7 mb 0.00 in0.0 mm 0.00 in0.0 mm 0.00 in0.0 mm
04:42 AM 41.2°F5.1°C 37.2°F2.9°C 86% 10.4 mph SW16.7 kmh SW 18.0 mph29.0 kmh 30.14 in1020.7 mb 0.00 in0.0 mm 0.00 in0.0 mm 0.00 in0.0 mm
04:37 AM 41.2°F5.1°C 37.2°F2.9°C 86% 9.4 mph SW15.1 kmh SW 15.0 mph24.1 kmh 30.14 in1020.7 mb 0.00 in0.0 mm 0.00 in0.0 mm 0.00 in0.0 mm
04:32 AM 41.2°F5.1°C 37.2°F2.9°C 86% 7.2 mph SW11.6 kmh SW 15.0 mph24.1 kmh 30.14 in1020.7 mb 0.00 in0.0 mm 0.00 in0.0 mm 0.00 in0.0 mm
04:27 AM 41.0°F5.0°C 37.2°F2.9°C 86% 8.5 mph SW13.7 kmh SW 12.0 mph19.3 kmh 30.15 in1021.0 mb 0.00 in0.0 mm 0.00 in0.0 mm 0.00 in0.0 mm
04:22 AM 41.0°F5.0°C 37.2°F2.9°C 86% 7.0 mph SW11.3 kmh SW 10.0 mph16.1 kmh 30.14 in1020.7 mb 0.00 in0.0 mm 0.00 in0.0 mm 0.00 in0.0 mm
04:17 AM 41.0°F5.0°C 37.2°F2.9°C 86% 8.8 mph SW14.2 kmh SW 17.0 mph27.4 kmh 30.14 in1020.7 mb 0.00 in0.0 mm 0.00 in0.0 mm 0.00 in0.0 mm
04:12 AM 41.2°F5.1°C 37.2°F2.9°C 86% 3.2 mph SW5.1 kmh SW 8.0 mph12.9 kmh 30.14 in1020.7 mb 0.00 in0.0 mm 0.00 in0.0 mm 0.00 in0.0 mm
04:07 AM 41.2°F5.1°C 37.4°F3.0°C 86% 8.5 mph SW13.7 kmh SW 13.0 mph20.9 kmh 30.14 in1020.7 mb 0.00 in0.0 mm 0.00 in0.0 mm 0.00 in0.0 mm
04:02 AM 41.2°F5.1°C 37.6°F3.1°C 87% 7.8 mph SW12.6 kmh SW 11.0 mph17.7 kmh 30.15 in1021.0 mb 0.00 in0.0 mm 0.00 in0.0 mm 0.00 in0.0 mm
03:57 AM 41.2°F5.1°C 37.6°F3.1°C 87% 8.2 mph SW13.2 kmh SW 14.0 mph22.5 kmh 30.14 in1020.7 mb 0.00 in0.0 mm 0.00 in0.0 mm 0.00 in0.0 mm
03:52 AM 41.2°F5.1°C 37.6°F3.1°C 87% 7.8 mph SW12.6 kmh SW 15.0 mph24.1 kmh 30.15 in1021.0 mb 0.00 in0.0 mm 0.00 in0.0 mm 0.00 in0.0 mm
03:47 AM 41.0°F5.0°C 37.6°F3.1°C 87% 5.9 mph SW9.5 kmh SW 12.0 mph19.3 kmh 30.15 in1021.0 mb 0.00 in0.0 mm 0.00 in0.0 mm 0.00 in0.0 mm
03:42 AM 40.8°F4.9°C 37.6°F3.1°C 88% 6.1 mph SW9.8 kmh SW 10.0 mph16.1 kmh 30.14 in1020.7 mb 0.00 in0.0 mm 0.00 in0.0 mm 0.00 in0.0 mm
03:37 AM 40.8°F4.9°C 37.4°F3.0°C 88% 4.6 mph SW7.4 kmh SW 8.0 mph12.9 kmh 30.14 in1020.7 mb 0.00 in0.0 mm 0.00 in0.0 mm 0.00 in0.0 mm
03:32 AM 40.6°F4.8°C 37.2°F2.9°C 88% 5.5 mph SW8.9 kmh SW 10.0 mph16.1 kmh 30.15 in1021.0 mb 0.00 in0.0 mm 0.00 in0.0 mm 0.00 in0.0 mm
03:27 AM 40.6°F4.8°C 37.2°F2.9°C 88% 4.6 mph SW7.4 kmh SW 11.0 mph17.7 kmh 30.14 in1020.7 mb 0.00 in0.0 mm 0.00 in0.0 mm 0.00 in0.0 mm
03:22 AM 40.5°F4.7°C 37.0°F2.8°C 88% 6.3 mph SW10.1 kmh SW 9.0 mph14.5 kmh 30.14 in1020.7 mb 0.00 in0.0 mm 0.00 in0.0 mm 0.00 in0.0 mm
03:17 AM 40.5°F4.7°C 37.0°F2.8°C 87% 6.4 mph SW10.3 kmh SW 9.0 mph14.5 kmh 30.14 in1020.7 mb 0.00 in0.0 mm 0.00 in0.0 mm 0.00 in0.0 mm
03:12 AM 40.5°F4.7°C 37.0°F2.8°C 87% 4.5 mph SW7.2 kmh SW 8.0 mph12.9 kmh 30.14 in1020.7 mb 0.00 in0.0 mm 0.00 in0.0 mm 0.00 in0.0 mm
03:02 AM 40.6°F4.8°C 37.0°F2.8°C 87% 4.0 mph SW6.4 kmh SW 7.0 mph11.3 kmh 30.14 in1020.7 mb 0.00 in0.0 mm 0.00 in0.0 mm 0.00 in0.0 mm
02:57 AM 40.8°F4.9°C 37.0°F2.8°C 87% 3.3 mph SW5.3 kmh SW 12.0 mph19.3 kmh 30.14 in1020.7 mb 0.00 in0.0 mm 0.00 in0.0 mm 0.00 in0.0 mm
02:52 AM 40.8°F4.9°C 37.0°F2.8°C 86% 5.5 mph SW8.9 kmh SW 10.0 mph16.1 kmh 30.14 in1020.7 mb 0.00 in0.0 mm 0.00 in0.0 mm 0.00 in0.0 mm
02:47 AM 40.8°F4.9°C 37.0°F2.8°C 86% 6.8 mph SW10.9 kmh SW 11.0 mph17.7 kmh 30.14 in1020.7 mb 0.00 in0.0 mm 0.00 in0.0 mm 0.00 in0.0 mm
02:42 AM 40.8°F4.9°C 37.0°F2.8°C 86% 5.4 mph SW8.7 kmh SW 9.0 mph14.5 kmh 30.14 in1020.7 mb 0.00 in0.0 mm 0.00 in0.0 mm 0.00 in0.0 mm
02:37 AM 40.8°F4.9°C 36.9°F2.7°C 86% 4.5 mph SW7.2 kmh SW 9.0 mph14.5 kmh 30.14 in1020.7 mb 0.00 in0.0 mm 0.00 in0.0 mm 0.00 in0.0 mm
02:32 AM 40.8°F4.9°C 36.9°F2.7°C 86% 5.5 mph SW8.9 kmh SW 15.0 mph24.1 kmh 30.14 in1020.7 mb 0.00 in0.0 mm 0.00 in0.0 mm 0.00 in0.0 mm
02:27 AM 40.8°F4.9°C 36.9°F2.7°C 85% 5.0 mph SW8.0 kmh SW 10.0 mph16.1 kmh 30.14 in1020.7 mb 0.00 in0.0 mm 0.00 in0.0 mm 0.00 in0.0 mm
02:22 AM 40.8°F4.9°C 36.7°F2.6°C 85% 3.7 mph SW6.0 kmh SW 9.0 mph14.5 kmh 30.13 in1020.3 mb 0.00 in0.0 mm 0.00 in0.0 mm 0.00 in0.0 mm
02:17 AM 40.8°F4.9°C 36.7°F2.6°C 84% 1.2 mph SW1.9 kmh SW 7.0 mph11.3 kmh 30.13 in1020.3 mb 0.00 in0.0 mm 0.00 in0.0 mm 0.00 in0.0 mm
02:12 AM 41.0°F5.0°C 36.5°F2.5°C 84% 1.2 mph SW1.9 kmh SW 4.0 mph6.4 kmh 30.13 in1020.3 mb 0.00 in0.0 mm 0.00 in0.0 mm 0.00 in0.0 mm
02:07 AM 41.2°F5.1°C 36.5°F2.5°C 84% 0.4 mph SSW0.6 kmh SSW 4.0 mph6.4 kmh 30.13 in1020.3 mb 0.00 in0.0 mm 0.00 in0.0 mm 0.00 in0.0 mm
02:02 AM 41.2°F5.1°C 36.3°F2.4°C 83% 3.5 mph SW5.6 kmh SW 9.0 mph14.5 kmh 30.13 in1020.3 mb 0.00 in0.0 mm 0.00 in0.0 mm 0.00 in0.0 mm
01:57 AM 41.2°F5.1°C 36.5°F2.5°C 83% 2.7 mph SSW4.3 kmh SSW 7.0 mph11.3 kmh 30.13 in1020.3 mb 0.00 in0.0 mm 0.00 in0.0 mm 0.00 in0.0 mm
01:52 AM 41.4°F5.2°C 36.5°F2.5°C 83% 1.2 mph SW1.9 kmh SW 9.0 mph14.5 kmh 30.13 in1020.3 mb 0.00 in0.0 mm 0.00 in0.0 mm 0.00 in0.0 mm
01:47 AM 41.4°F5.2°C 36.5°F2.5°C 83% 3.4 mph SW5.5 kmh SW 7.0 mph11.3 kmh 30.12 in1020.0 mb 0.00 in0.0 mm 0.00 in0.0 mm 0.00 in0.0 mm
01:42 AM 41.5°F5.3°C 36.7°F2.6°C 83% 1.9 mph SW3.1 kmh SW 4.0 mph6.4 kmh 30.12 in1020.0 mb 0.00 in0.0 mm 0.00 in0.0 mm 0.00 in0.0 mm
01:37 AM 41.5°F5.3°C 36.5°F2.5°C 82% 1.7 mph SSW2.7 kmh SSW 8.0 mph12.9 kmh 30.12 in1020.0 mb 0.00 in0.0 mm 0.00 in0.0 mm 0.00 in0.0 mm
01:32 AM 41.7°F5.4°C 36.5°F2.5°C 82% 3.2 mph SW5.1 kmh SW 6.0 mph9.7 kmh 30.12 in1020.0 mb 0.00 in0.0 mm 0.00 in0.0 mm 0.00 in0.0 mm
01:27 AM 41.7°F5.4°C 36.7°F2.6°C 82% 5.3 mph SW8.5 kmh SW 9.0 mph14.5 kmh 30.11 in1019.6 mb 0.00 in0.0 mm 0.00 in0.0 mm 0.00 in0.0 mm
01:22 AM 41.9°F5.5°C 36.7°F2.6°C 81% 4.7 mph SW7.6 kmh SW 8.0 mph12.9 kmh 30.12 in1020.0 mb 0.00 in0.0 mm 0.00 in0.0 mm 0.00 in0.0 mm
01:17 AM 42.1°F5.6°C 36.5°F2.5°C 81% 3.7 mph SW6.0 kmh SW 7.0 mph11.3 kmh 30.12 in1020.0 mb 0.00 in0.0 mm 0.00 in0.0 mm 0.00 in0.0 mm
01:12 AM 42.3°F5.7°C 36.7°F2.6°C 81% 4.5 mph SW7.2 kmh SW 8.0 mph12.9 kmh 30.12 in1020.0 mb 0.00 in0.0 mm 0.00 in0.0 mm 0.00 in0.0 mm
01:07 AM 42.3°F5.7°C 36.7°F2.6°C 80% 4.0 mph SW6.4 kmh SW 8.0 mph12.9 kmh 30.11 in1019.6 mb 0.00 in0.0 mm 0.00 in0.0 mm 0.00 in0.0 mm
01:02 AM 42.3°F5.7°C 36.7°F2.6°C 81% 6.9 mph WSW11.1 kmh WSW 12.0 mph19.3 kmh 30.12 in1020.0 mb 0.00 in0.0 mm 0.00 in0.0 mm 0.00 in0.0 mm
12:57 AM 42.3°F5.7°C 36.9°F2.7°C 81% 7.4 mph SW11.9 kmh SW 13.0 mph20.9 kmh 30.11 in1019.6 mb 0.00 in0.0 mm 0.00 in0.0 mm 0.00 in0.0 mm
12:52 AM 42.3°F5.7°C 36.9°F2.7°C 81% 6.0 mph WSW9.7 kmh WSW 17.0 mph27.4 kmh 30.11 in1019.6 mb 0.00 in0.0 mm 0.00 in0.0 mm 0.00 in0.0 mm
12:47 AM 42.3°F5.7°C 36.9°F2.7°C 81% 5.7 mph WSW9.2 kmh WSW 11.0 mph17.7 kmh 30.11 in1019.6 mb 0.00 in0.0 mm 0.00 in0.0 mm 0.00 in0.0 mm
12:42 AM 42.3°F5.7°C 37.0°F2.8°C 81% 8.1 mph SW13.0 kmh SW 12.0 mph19.3 kmh 30.10 in1019.3 mb 0.00 in0.0 mm 0.00 in0.0 mm 0.00 in0.0 mm
12:32 AM 42.4°F5.8°C 37.6°F3.1°C 82% 8.8 mph WSW14.2 kmh WSW 16.0 mph25.7 kmh 30.09 in1019.0 mb 0.00 in0.0 mm 0.00 in0.0 mm 0.00 in0.0 mm
12:27 AM 42.4°F5.8°C 37.6°F3.1°C 82% 8.3 mph SW13.4 kmh SW 14.0 mph22.5 kmh 30.09 in1019.0 mb 0.00 in0.0 mm 0.00 in0.0 mm 0.00 in0.0 mm
12:22 AM 42.6°F5.9°C 37.6°F3.1°C 82% 9.1 mph SW14.6 kmh SW 17.0 mph27.4 kmh 30.09 in1019.0 mb 0.00 in0.0 mm 0.00 in0.0 mm 0.00 in0.0 mm
12:17 AM 42.6°F5.9°C 37.6°F3.1°C 82% 5.9 mph SW9.5 kmh SW 14.0 mph22.5 kmh 30.09 in1019.0 mb 0.00 in0.0 mm 0.00 in0.0 mm 0.00 in0.0 mm
12:12 AM 42.6°F5.9°C 37.6°F3.1°C 82% 6.1 mph SW9.8 kmh SW 15.0 mph24.1 kmh 30.09 in1019.0 mb 0.00 in0.0 mm 0.00 in0.0 mm 0.00 in0.0 mm
12:07 AM 42.8°F6.0°C 37.6°F3.1°C 82% 9.5 mph SW15.3 kmh SW 15.0 mph24.1 kmh 30.09 in1019.0 mb 0.00 in0.0 mm 0.00 in0.0 mm 0.00 in0.0 mm
12:02 AM 42.8°F6.0°C 37.6°F3.1°C 82% 11.1 mph SW17.9 kmh SW 18.0 mph29.0 kmh 30.08 in1018.6 mb 0.00 in0.0 mm 0.00 in0.0 mm 0.00 in0.0 mm